Accueil
METAR-TAF:

METAR-TAF

Aéroports :

Aéroport de Francfort-sur-le-Main

Francfort-sur-le-Main, Allemagne

latitude: 50-03N, longitude: 008-36E, altitude: 111 m

Observation

Le bulletin a été fait il y a 18 minutes, à 08:20 UTC
Vent 11 kt de nord-est
Température 2°C
Humidité 80%
Pression 1015 hPa
Visibilité 10 km ou plus
Nuages fragmentés à une hauteur de 1500 ft

METAR: EDDF 210820Z 05011KT 9999 BKN015 02/M01 Q1015 NOSIG

Heure: 09:38 (08:38 UTC)

Prévision

Le bulletin a été fait il y a 3 heures et 38 minutes, à 05:00 UTC
Prévision valable du 21 à 06 UTC au 22 à 12 UTC
Vent 7 kt de nord-est
Visibilité 10 km ou plus
Nuages épars à une hauteur de 2000 ft
Evoluant progressivement
du 21 à 06 UTC au 21 à 09 UTC
Nuages fragmentés à une hauteur de 1500 ft

TAF: EDDF 210500Z 2106/2212 04007KT 9999 SCT020 BECMG 2106/2109 BKN015

Observations et prévisions météorologiques de plus de 4000 aéroports (messages METAR et TAF).

Les stations disponibles sont représentées par des disques jaunes et rouges sur la carte.

Passer la souris dessus pour voir le nom de la station.

Cliquer dessus pour voir les observations et prévisions météorologiques.

Pour changer de carte: cliquez sur les boutons verts avec une croix noire pour zoomer, sur le bouton vert avec un tiret pour effectuer un zoom arrière, ou sur les flèches vertes pour les cartes adjacentes.


METAR-TAF: